Time;durP1;ratioP1;P1;durP2;ratioP2;P2;SDS_P1;SDS_P2;PMS_P1;PMS_P2;Temp;Humidity;BMP_temperature;BMP_pressure;BME280_temperature;BME280_humidity;BME280_pressure;Samples;Min_cycle;Max_cycle;Signal;HPM_P1;HPM_P2
2023/09/01 00:00:44;;;;;;;0.52;0.52;;;;;;;14.51;100.00;98272.56;4227745;27;20206;-45
2023/09/01 00:02:46;;;;;;;0.40;0.40;;;;;;;14.55;100.00;98270.91;4239082;27;20203;-45
2023/09/01 00:04:47;;;;;;;0.30;0.30;;;;;;;14.49;100.00;98266.50;4227140;27;20225;-45
2023/09/01 00:06:49;;;;;;;0.73;0.60;;;;;;;14.46;100.00;98267.09;4226327;28;20210;-45
2023/09/01 00:08:51;;;;;;;0.80;0.77;;;;;;;14.43;100.00;98264.88;4226040;28;20738;-45
2023/09/01 00:10:53;;;;;;;0.50;0.50;;;;;;;14.56;100.00;98260.72;4227257;27;20245;-45
2023/09/01 00:12:56;;;;;;;0.35;0.35;;;;;;;14.51;100.00;98261.53;4227103;27;20272;-45
2023/09/01 00:14:57;;;;;;;0.30;0.30;;;;;;;14.60;100.00;98273.63;4242620;27;20232;-45
2023/09/01 00:16:59;;;;;;;0.30;0.30;;;;;;;14.59;100.00;98271.16;4224109;27;20206;-44
2023/09/01 00:19:03;;;;;;;0.90;0.90;;;;;;;14.53;100.00;98262.09;4222495;28;20211;-45
2023/09/01 00:21:05;;;;;;;0.47;0.47;;;;;;;14.66;100.00;98267.00;4226539;27;20202;-45
2023/09/01 00:23:07;;;;;;;0.50;0.50;;;;;;;14.63;100.00;98266.75;4222885;27;20709;-44
2023/09/01 00:25:09;;;;;;;0.47;0.47;;;;;;;14.61;100.00;98258.75;4221097;27;20704;-46
2023/09/01 00:27:11;;;;;;;1.20;1.10;;;;;;;14.60;100.00;98262.63;4228112;27;20210;-45
2023/09/01 00:29:12;;;;;;;0.65;0.65;;;;;;;14.59;100.00;98260.97;4228032;27;20519;-44
2023/09/01 00:31:16;;;;;;;0.60;0.60;;;;;;;14.65;100.00;98259.84;4227528;27;20205;-44
2023/09/01 00:33:18;;;;;;;0.60;0.60;;;;;;;14.70;100.00;98267.25;4240588;27;20237;-44
2023/09/01 00:35:20;;;;;;;0.65;0.65;;;;;;;14.65;100.00;98259.84;4222124;27;20229;-44
2023/09/01 00:37:22;;;;;;;1.45;0.95;;;;;;;14.66;100.00;98261.50;4223848;27;20205;-45
2023/09/01 00:39:24;;;;;;;3.92;0.73;;;;;;;14.66;100.00;98269.75;4222171;28;20210;-45
2023/09/01 00:41:26;;;;;;;0.40;0.40;;;;;;;14.68;100.00;98270.28;4223830;28;20636;-45
2023/09/01 00:43:28;;;;;;;0.50;0.50;;;;;;;14.72;100.00;98265.88;4224500;27;20209;-45
2023/09/01 00:45:30;;;;;;;0.60;0.60;;;;;;;14.73;100.00;98263.94;4224930;28;20773;-45
2023/09/01 00:47:35;;;;;;;0.98;0.55;;;;;;;14.81;100.00;98268.84;4226494;28;20210;-45
2023/09/01 00:49:37;;;;;;;0.60;0.60;;;;;;;14.85;100.00;98268.03;4221493;28;20214;-45
2023/09/01 00:51:39;;;;;;;0.70;0.70;;;;;;;14.85;100.00;98270.78;4223396;27;20556;-45
2023/09/01 00:53:41;;;;;;;0.40;0.40;;;;;;;14.80;100.00;98267.19;4221935;28;20229;-45
2023/09/01 00:55:42;;;;;;;3.50;1.05;;;;;;;14.91;100.00;98269.63;4221136;28;20202;-45
2023/09/01 00:57:48;;;;;;;0.40;0.40;;;;;;;14.88;100.00;98264.69;4224165;28;20216;-46
2023/09/01 00:59:49;;;;;;;0.57;0.57;;;;;;;14.91;100.00;98261.34;4223029;28;20198;-45
2023/09/01 01:01:52;;;;;;;0.38;0.38;;;;;;;14.92;100.00;98257.50;4219452;28;20198;-45
2023/09/01 01:03:54;;;;;;;0.68;0.47;;;;;;;15.01;100.00;98258.56;4223106;27;20218;-45
2023/09/01 01:06:09;;;;;;;0.30;0.30;;;;;;;15.00;100.00;98256.91;4226659;28;20292;-45
2023/09/01 01:08:14;;;;;;;0.30;0.30;;;;;;;15.05;100.00;98264.31;4224109;28;20213;-46
2023/09/01 01:10:20;;;;;;;0.35;0.35;;;;;;;15.06;100.00;98250.25;4238854;27;20219;-45
2023/09/01 01:12:26;;;;;;;0.50;0.50;;;;;;;15.08;100.00;98253.53;4239703;27;20262;-45
2023/09/01 01:14:44;;;;;;;10.40;1.42;;;;;;;15.04;100.00;98244.19;4225742;28;20375;-45
2023/09/01 01:16:45;;;;;;;1.58;0.50;;;;;;;15.09;100.00;98244.16;4216688;28;20207;-45
2023/09/01 01:18:52;;;;;;;0.40;0.40;;;;;;;15.13;100.00;98245.25;4208778;28;20203;-44
2023/09/01 01:20:59;;;;;;;0.50;0.50;;;;;;;15.09;100.00;98237.84;4226406;28;20201;-45
2023/09/01 01:23:17;;;;;;;0.30;0.30;;;;;;;15.08;100.00;98234.25;4207158;28;20195;-45
2023/09/01 01:25:20;;;;;;;0.32;0.32;;;;;;;15.12;100.00;98240.84;4235992;27;20226;-45
2023/09/01 01:27:22;;;;;;;0.43;0.43;;;;;;;15.13;100.00;98247.16;4228741;27;20547;-46
2023/09/01 01:29:23;;;;;;;0.30;0.30;;;;;;;15.16;100.00;98244.66;4227304;27;20206;-45
2023/09/01 01:31:25;;;;;;;3.03;0.50;;;;;;;15.20;100.00;98240.25;4210628;28;20667;-45
2023/09/01 01:33:36;;;;;;;0.60;0.60;;;;;;;15.22;100.00;98240.75;4223859;27;20229;-45
2023/09/01 01:35:38;;;;;;;0.35;0.35;;;;;;;15.24;100.00;98240.50;4226810;28;20238;-45
2023/09/01 01:37:43;;;;;;;0.43;0.43;;;;;;;15.25;100.00;98240.22;4222014;28;20326;-46
2023/09/01 01:39:46;;;;;;;0.30;0.30;;;;;;;15.26;100.00;98243.78;4239715;27;20209;-45
2023/09/01 01:42:15;;;;;;;0.50;0.50;;;;;;;15.22;100.00;98243.53;4222318;28;20618;-45
2023/09/01 01:44:20;;;;;;;0.40;0.40;;;;;;;15.25;100.00;98242.97;4242095;27;20225;-45
2023/09/01 01:46:22;;;;;;;0.30;0.30;;;;;;;15.22;100.00;98249.03;4227413;27;20751;-45
2023/09/01 01:48:25;;;;;;;0.50;0.50;;;;;;;15.21;100.00;98235.53;4229806;27;20210;-45
2023/09/01 01:50:26;;;;;;;0.50;0.50;;;;;;;15.23;100.00;98242.41;4202572;28;20206;-46
2023/09/01 01:52:28;;;;;;;0.35;0.35;;;;;;;15.22;100.00;98238.00;4224375;28;20205;-45
2023/09/01 01:54:30;;;;;;;0.43;0.43;;;;;;;15.28;100.00;98236.88;4225323;28;20241;-45
2023/09/01 01:56:32;;;;;;;0.50;0.50;;;;;;;15.37;100.00;98232.41;4227298;28;20260;-45
2023/09/01 01:58:39;;;;;;;0.47;0.47;;;;;;;15.32;100.00;98231.63;4241898;27;20209;-45
2023/09/01 02:00:41;;;;;;;0.30;0.30;;;;;;;15.31;100.00;98233.53;4238816;27;20289;-46
2023/09/01 02:02:43;;;;;;;0.45;0.45;;;;;;;15.37;100.00;98235.16;4228744;27;20684;-44
2023/09/01 02:04:44;;;;;;;0.38;0.38;;;;;;;15.32;100.00;98237.97;4228058;27;20230;-45
2023/09/01 02:06:46;;;;;;;0.75;0.75;;;;;;;15.38;100.00;98242.34;4222263;28;20602;-46
2023/09/01 02:08:48;;;;;;;0.40;0.40;;;;;;;15.48;100.00;98245.00;4245183;27;20193;-45
2023/09/01 02:10:50;;;;;;;0.50;0.50;;;;;;;15.39;100.00;98246.75;4230682;27;20205;-45
2023/09/01 02:12:51;;;;;;;0.45;0.45;;;;;;;15.39;100.00;98244.00;4226676;27;20284;-45
2023/09/01 02:14:53;;;;;;;0.68;0.68;;;;;;;15.44;100.00;98246.69;4227267;27;20230;-45
2023/09/01 02:16:58;;;;;;;0.70;0.70;;;;;;;15.42;100.00;98248.91;4240417;27;22032;-45
2023/09/01 02:19:00;;;;;;;0.47;0.47;;;;;;;15.48;100.00;98247.78;4228542;27;20202;-46
2023/09/01 02:21:02;;;;;;;0.28;0.28;;;;;;;15.54;100.00;98246.63;4227071;27;20217;-46
2023/09/01 02:23:04;;;;;;;0.47;0.47;;;;;;;15.55;100.00;98253.78;4228637;27;20202;-45
2023/09/01 02:25:08;;;;;;;0.47;0.47;;;;;;;15.57;100.00;98245.22;4228837;28;20237;-45
2023/09/01 02:27:12;;;;;;;0.50;0.50;;;;;;;15.63;100.00;98247.63;4225166;27;20358;-45
2023/09/01 02:29:14;;;;;;;0.93;0.93;;;;;;;15.58;100.00;98247.72;4220495;28;20214;-45
2023/09/01 02:31:17;;;;;;;0.50;0.50;;;;;;;15.66;100.00;98244.31;4219681;28;20796;-45
2023/09/01 02:33:18;;;;;;;0.60;0.60;;;;;;;15.68;100.00;98236.56;4228016;27;20680;-45
2023/09/01 02:35:21;;;;;;;0.45;0.45;;;;;;;15.64;100.00;98240.19;4228429;28;20263;-45
2023/09/01 02:37:22;;;;;;;0.40;0.40;;;;;;;15.65;100.00;98237.16;4226480;27;20206;-45
2023/09/01 02:39:25;;;;;;;0.45;0.45;;;;;;;15.70;100.00;98233.53;4227429;27;20213;-45
2023/09/01 02:41:26;;;;;;;0.60;0.60;;;;;;;15.65;100.00;98230.81;4228256;28;20206;-45
2023/09/01 02:43:28;;;;;;;0.20;0.20;;;;;;;15.63;100.00;98247.63;4240509;27;20217;-46
2023/09/01 02:45:30;;;;;;;0.45;0.43;;;;;;;15.64;100.00;98246.53;4223384;28;20618;-45
2023/09/01 02:47:32;;;;;;;0.40;0.40;;;;;;;15.67;100.00;98250.66;4226401;27;20222;-45
2023/09/01 02:49:34;;;;;;;0.32;0.32;;;;;;;15.72;100.00;98237.66;4225228;27;20562;-45
2023/09/01 02:51:36;;;;;;;0.52;0.38;;;;;;;15.71;100.00;98246.22;4222638;27;20254;-46
2023/09/01 02:53:38;;;;;;;0.60;0.60;;;;;;;15.78;100.00;98246.69;4223540;28;20248;-47
2023/09/01 02:55:40;;;;;;;0.30;0.30;;;;;;;15.80;100.00;98249.97;4228979;27;20209;-45
2023/09/01 02:57:42;;;;;;;0.50;0.50;;;;;;;15.76;100.00;98238.69;4223514;27;20214;-45
2023/09/01 02:59:44;;;;;;;0.73;0.73;;;;;;;15.75;100.00;98245.34;4226088;27;20255;-46
2023/09/01 03:01:45;;;;;;;0.70;0.70;;;;;;;15.80;100.00;98245.28;4207391;28;20206;-45
2023/09/01 03:03:47;;;;;;;0.63;0.40;;;;;;;15.78;100.00;98247.53;4242301;27;20248;-45
2023/09/01 03:05:50;;;;;;;0.40;0.40;;;;;;;15.76;100.00;98244.22;4240746;27;20211;-45
2023/09/01 03:07:52;;;;;;;0.30;0.30;;;;;;;15.80;100.00;98244.47;4242647;27;20198;-46
2023/09/01 03:09:54;;;;;;;0.60;0.60;;;;;;;15.83;100.00;98243.91;4227445;27;20198;-45
2023/09/01 03:11:55;;;;;;;0.30;0.30;;;;;;;15.79;100.00;98243.66;4226409;27;20243;-45
2023/09/01 03:13:57;;;;;;;0.68;0.68;;;;;;;15.82;100.00;98242.25;4227405;27;20679;-45
2023/09/01 03:15:59;;;;;;;0.30;0.30;;;;;;;15.81;100.00;98235.91;4209504;28;20673;-45
2023/09/01 03:18:01;;;;;;;0.28;0.28;;;;;;;15.82;100.00;98239.50;4227785;27;20202;-45
2023/09/01 03:20:09;;;;;;;0.30;0.30;;;;;;;15.85;100.00;98239.72;4223872;27;20246;-48
2023/09/01 03:22:11;;;;;;;0.40;0.40;;;;;;;15.82;100.00;98243.06;4227188;27;20293;-45
2023/09/01 03:24:13;;;;;;;0.80;0.80;;;;;;;15.90;100.00;98239.66;4225353;27;20347;-45
2023/09/01 03:26:19;;;;;;;0.68;0.63;;;;;;;15.90;100.00;98245.19;4228445;27;20229;-46
2023/09/01 03:28:21;;;;;;;0.52;0.52;;;;;;;15.90;100.00;98249.91;4229320;27;20210;-45
2023/09/01 03:30:23;;;;;;;0.30;0.30;;;;;;;15.89;100.00;98243.53;4226841;27;20749;-45
2023/09/01 03:32:25;;;;;;;0.45;0.45;;;;;;;15.88;100.00;98247.41;4228117;27;20206;-46
2023/09/01 03:34:27;;;;;;;0.35;0.35;;;;;;;15.87;100.00;98245.78;4226058;27;20225;-48
2023/09/01 03:36:28;;;;;;;0.52;0.52;;;;;;;15.99;100.00;98248.97;4228608;27;20255;-45
2023/09/01 03:38:31;;;;;;;0.32;0.32;;;;;;;15.94;100.00;98243.50;4208755;28;20252;-45
2023/09/01 03:40:35;;;;;;;0.90;0.90;;;;;;;15.92;100.00;98242.13;4220819;28;20290;-47
2023/09/01 03:42:38;;;;;;;0.57;0.57;;;;;;;15.98;100.00;98241.81;4237519;27;20201;-45
2023/09/01 03:44:40;;;;;;;0.88;0.32;;;;;;;15.96;100.00;98237.69;4237316;27;20738;-45
2023/09/01 03:46:42;;;;;;;0.50;0.50;;;;;;;16.02;100.00;98244.81;4218609;28;20317;-46
2023/09/01 03:48:43;;;;;;;0.20;0.20;;;;;;;15.98;100.00;98241.81;4220340;27;20206;-46
2023/09/01 03:51:14;;;;;;;0.20;0.20;;;;;;;16.12;100.00;98247.44;4235214;27;20209;-45
2023/09/01 03:53:16;;;;;;;0.50;0.50;;;;;;;16.14;100.00;98245.22;4221791;27;20237;-46
2023/09/01 03:55:18;;;;;;;1.70;0.52;;;;;;;16.16;100.00;98249.34;4218930;27;20222;-45
2023/09/01 03:57:19;;;;;;;0.40;0.40;;;;;;;16.20;100.00;98244.88;4224253;27;20202;-45
2023/09/01 03:59:21;;;;;;;0.47;0.47;;;;;;;16.24;100.00;98242.38;4238813;27;20197;-45
2023/09/01 04:01:23;;;;;;;0.80;0.80;;;;;;;16.23;100.00;98249.81;4223089;27;20255;-45
2023/09/01 04:03:25;;;;;;;0.40;0.40;;;;;;;16.22;100.00;98250.94;4221839;27;20229;-44
2023/09/01 04:05:27;;;;;;;0.47;0.47;;;;;;;16.26;100.00;98243.72;4219378;27;20213;-46
2023/09/01 04:07:29;;;;;;;0.50;0.50;;;;;;;16.23;100.00;98249.00;4201742;28;20237;-45
2023/09/01 04:09:31;;;;;;;0.40;0.40;;;;;;;16.25;100.00;98242.06;4219812;28;20665;-45
2023/09/01 04:11:33;;;;;;;0.30;0.30;;;;;;;16.27;100.00;98250.88;4221739;28;20568;-47
2023/09/01 04:13:35;;;;;;;0.40;0.40;;;;;;;16.30;100.00;98244.75;4219401;27;20218;-46
2023/09/01 04:15:37;;;;;;;0.60;0.60;;;;;;;16.31;100.00;98246.44;4216769;28;20951;-47
2023/09/01 04:17:39;;;;;;;0.55;0.55;;;;;;;16.29;100.00;98245.88;4221274;27;20296;-46
2023/09/01 04:19:40;;;;;;;0.55;0.55;;;;;;;16.35;100.00;98247.47;4239079;27;20216;-45
2023/09/01 04:21:42;;;;;;;0.50;0.50;;;;;;;16.34;100.00;98245.84;4221771;27;20673;-46
2023/09/01 04:23:44;;;;;;;0.75;0.70;;;;;;;16.37;100.00;98253.50;4220245;27;20210;-45
2023/09/01 04:25:47;;;;;;;0.35;0.35;;;;;;;16.44;100.00;98244.94;4220304;28;20198;-45
2023/09/01 04:27:48;;;;;;;0.40;0.40;;;;;;;16.45;100.00;98247.41;4219345;27;20650;-45
2023/09/01 04:29:50;;;;;;;0.63;0.40;;;;;;;16.47;100.00;98250.69;4219603;27;20936;-46
2023/09/01 04:32:10;;;;;;;0.30;0.30;;;;;;;16.40;100.00;98250.22;4218895;27;20255;-46
2023/09/01 04:34:13;;;;;;;0.40;0.40;;;;;;;16.39;100.00;98254.09;4216844;28;20704;-45
2023/09/01 04:36:14;;;;;;;0.57;0.57;;;;;;;16.39;100.00;98248.56;4234657;27;20234;-46
2023/09/01 04:38:16;;;;;;;0.50;0.50;;;;;;;16.43;100.00;98255.13;4218478;27;20203;-45
2023/09/01 04:40:18;;;;;;;7.25;2.08;;;;;;;16.41;100.00;98253.78;4218558;27;20653;-47
2023/09/01 04:42:20;;;;;;;0.73;0.73;;;;;;;16.40;100.00;98250.22;4219021;27;20607;-45
2023/09/01 04:44:22;;;;;;;0.73;0.50;;;;;;;16.40;100.00;98252.97;4222026;28;20679;-46
2023/09/01 04:46:25;;;;;;;0.20;0.20;;;;;;;16.46;100.00;98246.28;4220734;28;20229;-45
2023/09/01 04:48:27;;;;;;;0.32;0.32;;;;;;;16.45;100.00;98258.44;4218514;28;20206;-46
2023/09/01 04:50:28;;;;;;;1.45;1.35;;;;;;;16.51;100.00;98262.81;4218980;28;20206;-46
2023/09/01 04:52:30;;;;;;;0.40;0.40;;;;;;;16.44;100.00;98262.31;4216624;28;20206;-45
2023/09/01 04:54:44;;;;;;;0.40;0.40;;;;;;;16.49;100.00;98265.00;4223618;28;20304;-45
2023/09/01 04:56:45;;;;;;;0.30;0.30;;;;;;;16.47;100.00;98261.72;4217156;28;22114;-46
2023/09/01 04:58:47;;;;;;;0.40;0.40;;;;;;;16.45;100.00;98257.63;4217544;28;20290;-46
2023/09/01 05:00:52;;;;;;;0.50;0.50;;;;;;;16.44;100.00;98265.06;4219752;28;20431;-45
2023/09/01 05:02:54;;;;;;;0.55;0.55;;;;;;;16.47;100.00;98272.78;4223501;28;20255;-45
2023/09/01 05:04:56;;;;;;;0.57;0.57;;;;;;;16.48;100.00;98268.91;4217956;28;20229;-45
2023/09/01 05:06:57;;;;;;;0.85;0.85;;;;;;;16.45;100.00;98280.56;4223743;28;21078;-45
2023/09/01 05:08:59;;;;;;;0.55;0.55;;;;;;;16.47;100.00;98272.78;4222329;28;20648;-45
2023/09/01 05:11:01;;;;;;;0.40;0.40;;;;;;;16.47;100.00;98272.78;4223849;28;20216;-45
2023/09/01 05:13:03;;;;;;;0.60;0.60;;;;;;;16.53;100.00;98281.81;4220584;28;20251;-45
2023/09/01 05:15:05;;;;;;;0.65;0.65;;;;;;;16.50;100.00;98277.69;4221005;28;20776;-45
2023/09/01 05:17:07;;;;;;;2.15;0.80;;;;;;;16.49;100.00;98273.31;4219736;28;20217;-47
2023/09/01 05:19:09;;;;;;;0.47;0.47;;;;;;;16.47;100.00;98272.78;4224207;28;20266;-45
2023/09/01 05:21:11;;;;;;;0.40;0.40;;;;;;;16.54;100.00;98273.25;4222278;28;20849;-45
2023/09/01 05:23:14;;;;;;;0.45;0.45;;;;;;;16.55;100.00;98274.09;4225186;27;20764;-45
2023/09/01 05:25:16;;;;;;;0.55;0.55;;;;;;;16.51;100.00;98273.84;4236252;27;20231;-46
2023/09/01 05:27:21;;;;;;;0.45;0.45;;;;;;;16.53;100.00;98282.66;4220197;28;20631;-46
2023/09/01 05:29:23;;;;;;;0.40;0.40;;;;;;;16.53;100.00;98282.66;4216728;28;20228;-46
2023/09/01 05:31:24;;;;;;;0.52;0.52;;;;;;;16.54;100.00;98277.94;4220812;28;20212;-46
2023/09/01 05:33:26;;;;;;;0.40;0.40;;;;;;;16.53;100.00;98279.91;4234779;27;20212;-46
2023/09/01 05:35:28;;;;;;;1.08;0.93;;;;;;;16.53;100.00;98279.91;4239488;27;20201;-45
2023/09/01 05:37:30;;;;;;;1.50;0.73;;;;;;;16.56;100.00;98284.00;4221968;28;20217;-46
2023/09/01 05:39:32;;;;;;;1.00;0.98;;;;;;;16.56;100.00;98281.25;4221236;28;20194;-45
2023/09/01 05:41:34;;;;;;;1.02;1.02;;;;;;;16.57;100.00;98285.66;4204359;28;20298;-45
2023/09/01 05:43:36;;;;;;;0.40;0.40;;;;;;;16.51;100.00;98287.66;4217177;28;20209;-45
2023/09/01 05:45:39;;;;;;;0.88;0.88;;;;;;;16.60;100.00;98293.34;4220094;28;20289;-45
2023/09/01 05:47:41;;;;;;;0.88;0.88;;;;;;;16.59;100.00;98292.53;4225251;28;20268;-46
2023/09/01 05:49:43;;;;;;;0.50;0.50;;;;;;;16.55;100.00;98291.47;4202842;28;20554;-46
2023/09/01 05:51:45;;;;;;;0.50;0.50;;;;;;;16.59;100.00;98298.06;4206942;28;20231;-45
2023/09/01 05:53:47;;;;;;;0.47;0.47;;;;;;;16.59;100.00;98295.31;4221943;28;20226;-45
2023/09/01 05:55:49;;;;;;;0.43;0.43;;;;;;;16.57;100.00;98294.75;4217848;28;20584;-45
2023/09/01 05:57:51;;;;;;;0.50;0.50;;;;;;;16.56;100.00;98304.16;4223795;28;20224;-46
2023/09/01 05:59:53;;;;;;;0.40;0.40;;;;;;;16.62;100.00;98305.75;4219371;28;20202;-45
2023/09/01 06:01:56;;;;;;;1.00;0.32;;;;;;;16.65;100.00;98302.41;4239384;27;20201;-45
2023/09/01 06:03:58;;;;;;;0.50;0.50;;;;;;;16.67;100.00;98310.38;4237507;27;20229;-46
2023/09/01 06:06:00;;;;;;;0.50;0.50;;;;;;;16.69;100.00;98314.50;4204544;28;20661;-45
2023/09/01 06:08:02;;;;;;;0.35;0.35;;;;;;;16.73;100.00;98315.56;4219100;28;20761;-46
2023/09/01 06:10:05;;;;;;;0.70;0.70;;;;;;;16.74;100.00;98317.22;4235691;27;20205;-46
2023/09/01 06:12:07;;;;;;;0.30;0.30;;;;;;;16.68;100.00;98318.41;4237098;27;20621;-45
2023/09/01 06:14:09;;;;;;;0.30;0.30;;;;;;;16.73;100.00;98323.88;4226176;27;20348;-45
2023/09/01 06:16:11;;;;;;;0.65;0.43;;;;;;;16.79;100.00;98325.47;4225665;27;20774;-47
2023/09/01 06:18:13;;;;;;;0.60;0.60;;;;;;;16.74;100.00;98324.69;4224461;27;20216;-45
2023/09/01 06:20:15;;;;;;;0.60;0.60;;;;;;;16.74;100.00;98322.75;4218362;27;20255;-47
2023/09/01 06:22:21;;;;;;;0.60;0.60;;;;;;;16.78;100.00;98322.97;4222459;27;20214;-46
2023/09/01 06:24:23;;;;;;;0.40;0.40;;;;;;;16.75;100.00;98331.88;4221766;27;20776;-45
2023/09/01 06:26:25;;;;;;;0.52;0.52;;;;;;;16.75;100.00;98329.13;4221758;27;20210;-46
2023/09/01 06:28:27;;;;;;;2.13;1.48;;;;;;;16.76;100.00;98331.56;4222832;27;20222;-47
2023/09/01 06:30:29;;;;;;;0.52;0.52;;;;;;;16.78;100.00;98334.03;4221164;28;20505;-46
2023/09/01 06:32:32;;;;;;;0.65;0.65;;;;;;;16.81;100.00;98334.28;4224286;27;20503;-45
2023/09/01 06:34:36;;;;;;;0.82;0.82;;;;;;;16.83;100.00;98332.03;4227716;27;20214;-45
2023/09/01 06:36:38;;;;;;;0.73;0.73;;;;;;;16.84;100.00;98333.66;4226817;27;20700;-45
2023/09/01 06:38:43;;;;;;;0.40;0.40;;;;;;;16.89;100.00;98336.38;4243025;27;20233;-46
2023/09/01 06:40:46;;;;;;;0.30;0.30;;;;;;;16.95;100.00;98337.97;4222897;27;20213;-49
2023/09/01 06:42:48;;;;;;;0.73;0.73;;;;;;;16.99;100.00;98336.28;4231285;22;21096;-63
2023/09/01 06:44:49;;;;;;;1.13;0.82;;;;;;;17.06;100.00;98345.03;4178519;28;20259;-64
2023/09/01 06:46:51;;;;;;;18.98;1.27;;;;;;;17.09;100.00;98336.13;4244355;22;20245;-90
2023/09/01 06:49:57;;;;;;;0.30;0.30;;;;;;;17.24;100.00;98333.16;4136063;28;20245;-89
2023/09/01 06:52:18;;;;;;;5.85;1.48;;;;;;;17.18;100.00;98339.91;4141554;28;20368;-88
2023/09/01 06:54:43;;;;;;;0.55;0.55;;;;;;;17.18;100.00;98337.94;4159080;28;20736;-89
2023/09/01 06:57:08;;;;;;;1.67;1.48;;;;;;;17.21;100.00;98345.66;4147093;28;20220;-89
2023/09/01 07:07:06;;;;;;;0.40;0.40;;;;;;;17.11;100.00;98344.97;4077111;29;20690;-90
2023/09/01 07:10:09;;;;;;;0.60;0.60;;;;;;;17.11;100.00;98350.50;4061470;29;20699;-88
2023/09/01 07:12:47;;;;;;;0.80;0.80;;;;;;;17.05;100.00;98346.16;4021322;29;20212;-89
2023/09/01 07:26:57;;;;;;;0.40;0.40;;;;;;;17.44;100.00;98328.19;3953074;29;20224;-87
2023/09/01 07:28:58;;;;;;;0.57;0.57;;;;;;;17.51;100.00;98339.72;4097369;22;20265;-45
2023/09/01 07:31:00;;;;;;;0.98;0.75;;;;;;;17.59;100.00;98341.00;4223978;28;20224;-45
2023/09/01 07:33:03;;;;;;;0.50;0.50;;;;;;;17.49;100.00;98336.44;4172536;22;21704;-63
2023/09/01 07:35:05;;;;;;;0.28;0.28;;;;;;;17.53;100.00;98342.19;4140996;28;20227;-62
2023/09/01 07:37:07;;;;;;;9.15;1.75;;;;;;;17.51;100.00;98341.69;4135029;28;20256;-64
2023/09/01 07:39:09;;;;;;;0.63;0.63;;;;;;;17.54;100.00;98343.84;4138532;28;20221;-63
2023/09/01 07:41:11;;;;;;;0.77;0.77;;;;;;;17.53;100.00;98342.19;4155023;28;20225;-62
2023/09/01 07:43:15;;;;;;;0.70;0.70;;;;;;;17.55;100.00;98345.47;4154986;28;20329;-62
2023/09/01 07:45:18;;;;;;;2.45;1.00;;;;;;;17.55;100.00;98354.63;4140163;28;20270;-63
2023/09/01 07:47:19;;;;;;;0.40;0.40;;;;;;;17.58;100.00;98344.91;4130550;28;20218;-63
2023/09/01 07:49:21;;;;;;;0.70;0.70;;;;;;;17.57;100.00;98355.13;4136167;28;20229;-63
2023/09/01 07:51:23;;;;;;;0.47;0.47;;;;;;;17.64;100.00;98349.25;4140259;28;20619;-64
2023/09/01 07:53:25;;;;;;;0.50;0.50;;;;;;;17.62;100.00;98346.75;4124917;28;20272;-62
2023/09/01 07:55:27;;;;;;;0.75;0.75;;;;;;;17.57;100.00;98346.00;4153679;28;20228;-62
2023/09/01 07:57:29;;;;;;;0.82;0.82;;;;;;;17.58;100.00;98348.47;4136537;28;20205;-62
2023/09/01 07:59:31;;;;;;;0.70;0.70;;;;;;;17.58;100.00;98356.78;4156318;28;20215;-62
2023/09/01 08:01:33;;;;;;;0.57;0.50;;;;;;;17.56;100.00;98355.41;4154952;28;20641;-62
2023/09/01 08:03:35;;;;;;;0.57;0.57;;;;;;;17.62;100.00;98351.47;4123435;28;20199;-62
2023/09/01 08:05:38;;;;;;;0.73;0.73;;;;;;;17.61;100.00;98345.13;4135374;28;20677;-61
2023/09/01 08:07:40;;;;;;;0.63;0.63;;;;;;;17.75;100.00;98353.47;4158602;28;20229;-62
2023/09/01 08:09:42;;;;;;;0.40;0.40;;;;;;;17.79;100.00;98358.09;4157270;28;20212;-62
2023/09/01 08:11:44;;;;;;;0.90;0.90;;;;;;;17.82;100.00;98351.16;4131812;28;20277;-62
2023/09/01 08:13:45;;;;;;;0.75;0.75;;;;;;;17.84;100.00;98354.47;4140169;28;20201;-61
2023/09/01 08:15:47;;;;;;;0.63;0.63;;;;;;;17.75;100.00;98361.78;4153057;28;20205;-62
2023/09/01 08:17:50;;;;;;;0.55;0.50;;;;;;;17.81;100.00;98366.97;4156426;28;20193;-62
2023/09/01 08:19:52;;;;;;;1.73;1.63;;;;;;;17.91;100.00;98355.72;4155072;28;20201;-62
2023/09/01 08:21:56;;;;;;;0.55;0.55;;;;;;;17.96;100.00;98363.94;4153461;28;20586;-61
2023/09/01 08:23:57;;;;;;;11.07;0.70;;;;;;;17.89;100.00;98360.72;4154730;28;20317;-62
2023/09/01 08:26:04;;;;;;;0.40;0.40;;;;;;;17.95;100.00;98362.31;4154332;28;20205;-61
2023/09/01 08:28:07;;;;;;;1.08;0.85;;;;;;;17.86;100.00;98366.84;4144236;28;20241;-62
2023/09/01 08:30:09;;;;;;;1.13;0.45;;;;;;;17.85;100.00;98361.66;4121954;28;20750;-61
2023/09/01 08:32:11;;;;;;;0.32;0.32;;;;;;;17.90;100.00;98369.84;4134470;28;20864;-62
2023/09/01 08:34:13;;;;;;;0.90;0.88;;;;;;;17.86;100.00;98374.34;4136229;28;20229;-62
2023/09/01 08:36:15;;;;;;;0.30;0.30;;;;;;;17.88;100.00;98367.41;4135776;28;20324;-64
2023/09/01 08:38:18;;;;;;;0.35;0.35;;;;;;;17.91;100.00;98371.53;4137274;28;20212;-62
2023/09/01 08:40:19;;;;;;;0.50;0.50;;;;;;;18.04;100.00;98370.75;4153818;28;20212;-64
2023/09/01 08:42:22;;;;;;;0.43;0.43;;;;;;;17.95;100.00;98367.84;4136134;28;20320;-63
2023/09/01 08:44:26;;;;;;;0.40;0.40;;;;;;;18.01;100.00;98369.41;4142247;28;20706;-62
2023/09/01 08:46:29;;;;;;;0.40;0.40;;;;;;;18.09;100.00;98373.41;4243409;22;20269;-63
2023/09/01 08:48:32;;;;;;;0.43;0.40;;;;;;;18.13;100.00;98372.50;4204746;28;20234;-64
2023/09/01 08:50:34;;;;;;;0.50;0.50;;;;;;;18.09;100.00;98376.19;4208134;28;20206;-65
2023/09/01 08:52:38;;;;;;;1.00;0.40;;;;;;;18.06;100.00;98379.56;4266823;22;20224;-63
2023/09/01 08:54:40;;;;;;;4.72;1.23;;;;;;;18.03;100.00;98377.41;4141407;28;20221;-63
2023/09/01 08:56:42;;;;;;;0.40;0.40;;;;;;;18.06;100.00;98385.13;4143948;28;20216;-63
2023/09/01 08:58:46;;;;;;;1.33;1.05;;;;;;;18.10;100.00;98381.44;4157268;28;20207;-64
2023/09/01 09:00:48;;;;;;;0.47;0.47;;;;;;;18.21;100.00;98377.38;4156243;28;20793;-64
2023/09/01 09:02:50;;;;;;;0.73;0.73;;;;;;;18.21;100.00;98369.06;4152850;28;20560;-63
2023/09/01 09:05:15;;;;;;;0.75;0.75;;;;;;;18.14;100.00;98373.34;4160471;28;20307;-62
2023/09/01 09:07:18;;;;;;;0.60;0.60;;;;;;;18.22;100.00;98367.09;4145507;28;20340;-63
2023/09/01 09:09:21;;;;;;;1.13;1.10;;;;;;;18.26;100.00;98370.94;4153185;28;20216;-62
2023/09/01 09:11:22;;;;;;;0.40;0.40;;;;;;;18.29;100.00;98375.84;4156077;28;20268;-62
2023/09/01 09:13:29;;;;;;;0.50;0.22;;;;;;;18.36;100.00;98365.22;4154303;28;20205;-63
2023/09/01 09:15:31;;;;;;;0.50;0.50;;;;;;;18.31;100.00;98365.34;4139632;28;20209;-63
2023/09/01 09:17:48;;;;;;;0.50;0.50;;;;;;;18.26;100.00;98366.19;4125684;28;20643;-64
2023/09/01 09:19:54;;;;;;;0.68;0.68;;;;;;;18.32;100.00;98356.69;4142364;28;20657;-63
2023/09/01 09:24:03;;;;;;;0.63;0.63;;;;;;;18.36;100.00;98368.84;4204982;28;20286;-63
2023/09/01 09:26:30;;;;;;;0.52;0.52;;;;;;;18.46;100.00;98365.06;4189349;28;20210;-62
2023/09/01 09:28:32;;;;;;;1.15;0.80;;;;;;;18.53;100.00;98373.81;4187698;28;20219;-64
2023/09/01 09:30:34;;;;;;;0.45;0.45;;;;;;;18.50;100.00;98366.09;4186044;28;20235;-64
2023/09/01 09:32:36;;;;;;;8.00;0.73;;;;;;;18.45;100.00;98372.53;4189415;28;20208;-64
2023/09/01 09:34:38;;;;;;;0.63;0.63;;;;;;;18.50;100.00;98369.69;4189007;28;20314;-64
2023/09/01 09:36:40;;;;;;;0.20;0.20;;;;;;;18.42;100.00;98377.88;4207499;28;20207;-64
2023/09/01 09:38:43;;;;;;;8.15;1.25;;;;;;;18.43;100.00;98379.50;4190000;28;20211;-63
2023/09/01 09:40:57;;;;;;;0.22;0.22;;;;;;;18.33;100.00;98374.16;4189549;28;20233;-63
2023/09/01 09:42:59;;;;;;;0.40;0.40;;;;;;;18.33;100.00;98385.25;4192666;28;20223;-64
2023/09/01 09:45:02;;;;;;;0.30;0.30;;;;;;;18.33;100.00;98379.72;4207956;28;20218;-63
2023/09/01 09:47:10;;;;;;;0.77;0.77;;;;;;;18.26;100.00;98384.78;4209098;28;20854;-64
2023/09/01 09:49:14;;;;;;;0.38;0.38;;;;;;;18.07;100.00;98384.81;4193693;28;20219;-62
2023/09/01 09:51:16;;;;;;;0.32;0.32;;;;;;;18.15;100.00;98372.22;4212022;28;20202;-64
2023/09/01 09:53:22;;;;;;;0.40;0.40;;;;;;;18.08;100.00;98393.94;4187498;28;20212;-64
2023/09/01 09:55:26;;;;;;;0.30;0.30;;;;;;;18.15;100.00;98391.59;4182433;28;20315;-65
2023/09/01 09:57:28;;;;;;;0.30;0.30;;;;;;;18.11;100.00;98385.03;4211638;28;20194;-62